Terminal Aerodrome Forecast
Issued by NWS

Home | Current Version | Previous Version | Text Only | Print | Product List | Glossary On
Versions: 1 2 3 4 5 6 7 8 9 10 11 12 13 14 15 16 17 18
000
FTUS43 KIND 031300 AAA
TAFBMG
TAF AMD
KBMG 031300Z 0313/0412 25004KT 6SM BR FEW100
     FM031400 27006KT P6SM SCT030 SCT100 SCT250
     FM040100 23003KT P6SM SCT250
     FM040700 00000KT 4SM BR SCT080 BKN250=

USA.gov is the U.S. government's official web portal to all federal, state and local government web resources and services.